sensor_id;sensor_type;location;lat;lon;timestamp;temperature;humidity
74940;HTU21D;63505;45.226;37.908;2022-10-18T00:01:13;8.22;76.24
74940;HTU21D;63505;45.226;37.908;2022-10-18T00:03:39;8.21;76.28
74940;HTU21D;63505;45.226;37.908;2022-10-18T00:06:05;8.20;76.30
74940;HTU21D;63505;45.226;37.908;2022-10-18T00:08:34;8.21;76.29
74940;HTU21D;63505;45.226;37.908;2022-10-18T00:11:01;8.18;76.30
74940;HTU21D;63505;45.226;37.908;2022-10-18T00:13:27;8.18;76.32
74940;HTU21D;63505;45.226;37.908;2022-10-18T00:15:58;8.15;76.32
74940;HTU21D;63505;45.226;37.908;2022-10-18T00:18:24;8.12;76.37
74940;HTU21D;63505;45.226;37.908;2022-10-18T00:21:04;8.08;76.43
74940;HTU21D;63505;45.226;37.908;2022-10-18T00:23:31;8.09;76.41
74940;HTU21D;63505;45.226;37.908;2022-10-18T00:26:15;8.04;76.46
74940;HTU21D;63505;45.226;37.908;2022-10-18T00:28:43;8.02;76.48
74940;HTU21D;63505;45.226;37.908;2022-10-18T00:31:15;7.99;76.51
74940;HTU21D;63505;45.226;37.908;2022-10-18T00:33:43;7.97;76.55
74940;HTU21D;63505;45.226;37.908;2022-10-18T00:36:10;7.94;76.59
74940;HTU21D;63505;45.226;37.908;2022-10-18T00:38:37;7.96;76.60
74940;HTU21D;63505;45.226;37.908;2022-10-18T00:41:05;7.93;76.61
74940;HTU21D;63505;45.226;37.908;2022-10-18T00:43:31;7.93;76.60
74940;HTU21D;63505;45.226;37.908;2022-10-18T00:45:57;7.90;76.63
74940;HTU21D;63505;45.226;37.908;2022-10-18T00:48:23;7.88;76.69
74940;HTU21D;63505;45.226;37.908;2022-10-18T00:50:51;7.87;76.71
74940;HTU21D;63505;45.226;37.908;2022-10-18T00:53:19;7.86;76.72
74940;HTU21D;63505;45.226;37.908;2022-10-18T00:55:46;7.83;76.75
74940;HTU21D;63505;45.226;37.908;2022-10-18T00:58:14;7.82;76.79
74940;HTU21D;63505;45.226;37.908;2022-10-18T01:00:41;7.79;76.80
74940;HTU21D;63505;45.226;37.908;2022-10-18T01:03:07;7.77;76.82
74940;HTU21D;63505;45.226;37.908;2022-10-18T01:05:41;7.74;76.85
74940;HTU21D;63505;45.226;37.908;2022-10-18T01:14:06;7.70;76.94
74940;HTU21D;63505;45.226;37.908;2022-10-18T01:32:39;7.54;76.90
74940;HTU21D;63505;45.226;37.908;2022-10-18T01:35:12;7.50;76.92
74940;HTU21D;63505;45.226;37.908;2022-10-18T01:37:42;7.49;76.93
74940;HTU21D;63505;45.226;37.908;2022-10-18T01:40:11;7.45;77.02
74940;HTU21D;63505;45.226;37.908;2022-10-18T01:42:39;7.44;77.03
74940;HTU21D;63505;45.226;37.908;2022-10-18T01:45:05;7.39;77.10
74940;HTU21D;63505;45.226;37.908;2022-10-18T01:47:33;7.38;77.14
74940;HTU21D;63505;45.226;37.908;2022-10-18T01:50:04;7.37;77.18
74940;HTU21D;63505;45.226;37.908;2022-10-18T01:52:32;7.34;77.15
74940;HTU21D;63505;45.226;37.908;2022-10-18T01:54:59;7.33;77.18
74940;HTU21D;63505;45.226;37.908;2022-10-18T01:58:01;7.30;77.26
74940;HTU21D;63505;45.226;37.908;2022-10-18T02:00:44;7.28;77.21
74940;HTU21D;63505;45.226;37.908;2022-10-18T02:03:20;7.25;77.22
74940;HTU21D;63505;45.226;37.908;2022-10-18T02:06:06;7.22;77.26
74940;HTU21D;63505;45.226;37.908;2022-10-18T02:08:45;7.19;77.27
74940;HTU21D;63505;45.226;37.908;2022-10-18T02:11:13;7.19;77.25
74940;HTU21D;63505;45.226;37.908;2022-10-18T02:16:15;7.17;77.22
74940;HTU21D;63505;45.226;37.908;2022-10-18T02:18:47;7.16;77.24
74940;HTU21D;63505;45.226;37.908;2022-10-18T02:21:17;7.14;77.30
74940;HTU21D;63505;45.226;37.908;2022-10-18T02:23:44;7.11;77.29
74940;HTU21D;63505;45.226;37.908;2022-10-18T02:26:13;7.10;77.30
74940;HTU21D;63505;45.226;37.908;2022-10-18T02:28:40;7.05;77.34
74940;HTU21D;63505;45.226;37.908;2022-10-18T02:31:18;7.01;77.39
74940;HTU21D;63505;45.226;37.908;2022-10-18T02:34:38;6.97;77.44
74940;HTU21D;63505;45.226;37.908;2022-10-18T02:36:44;6.97;77.46
74940;HTU21D;63505;45.226;37.908;2022-10-18T02:39:15;6.96;77.44
74940;HTU21D;63505;45.226;37.908;2022-10-18T02:41:42;6.95;77.44
74940;HTU21D;63505;45.226;37.908;2022-10-18T02:44:09;6.95;77.41
74940;HTU21D;63505;45.226;37.908;2022-10-18T02:46:36;6.94;77.43
74940;HTU21D;63505;45.226;37.908;2022-10-18T02:49:02;6.96;77.40
74940;HTU21D;63505;45.226;37.908;2022-10-18T02:51:28;6.94;77.40
74940;HTU21D;63505;45.226;37.908;2022-10-18T02:53:54;6.93;77.43
74940;HTU21D;63505;45.226;37.908;2022-10-18T02:56:19;6.91;77.43
74940;HTU21D;63505;45.226;37.908;2022-10-18T02:58:45;6.91;77.44
74940;HTU21D;63505;45.226;37.908;2022-10-18T03:01:11;6.90;77.44
74940;HTU21D;63505;45.226;37.908;2022-10-18T03:03:37;6.89;77.46
74940;HTU21D;63505;45.226;37.908;2022-10-18T03:06:03;6.87;77.46
74940;HTU21D;63505;45.226;37.908;2022-10-18T03:08:29;6.84;77.52
74940;HTU21D;63505;45.226;37.908;2022-10-18T03:10:55;6.80;77.58
74940;HTU21D;63505;45.226;37.908;2022-10-18T03:13:21;6.75;77.66
74940;HTU21D;63505;45.226;37.908;2022-10-18T03:15:47;6.74;77.73
74940;HTU21D;63505;45.226;37.908;2022-10-18T03:18:14;6.73;77.72
74940;HTU21D;63505;45.226;37.908;2022-10-18T03:20:40;6.69;77.77
74940;HTU21D;63505;45.226;37.908;2022-10-18T03:23:06;6.63;77.87
74940;HTU21D;63505;45.226;37.908;2022-10-18T03:25:32;6.60;78.04
74940;HTU21D;63505;45.226;37.908;2022-10-18T03:27:59;6.65;78.05
74940;HTU21D;63505;45.226;37.908;2022-10-18T03:30:26;6.70;77.92
74940;HTU21D;63505;45.226;37.908;2022-10-18T03:32:52;6.74;77.80
74940;HTU21D;63505;45.226;37.908;2022-10-18T03:35:19;6.76;77.72
74940;HTU21D;63505;45.226;37.908;2022-10-18T03:37:45;6.82;77.69
74940;HTU21D;63505;45.226;37.908;2022-10-18T03:40:11;6.85;77.58
74940;HTU21D;63505;45.226;37.908;2022-10-18T03:42:37;6.90;77.50
74940;HTU21D;63505;45.226;37.908;2022-10-18T03:45:03;6.90;77.45
74940;HTU21D;63505;45.226;37.908;2022-10-18T03:47:29;6.88;77.44
74940;HTU21D;63505;45.226;37.908;2022-10-18T03:49:55;6.89;77.52
74940;HTU21D;63505;45.226;37.908;2022-10-18T03:52:21;6.89;77.55
74940;HTU21D;63505;45.226;37.908;2022-10-18T03:54:47;6.88;77.56
74940;HTU21D;63505;45.226;37.908;2022-10-18T03:57:13;6.85;77.58
74940;HTU21D;63505;45.226;37.908;2022-10-18T03:59:39;6.84;77.64
74940;HTU21D;63505;45.226;37.908;2022-10-18T04:02:05;6.84;77.66
74940;HTU21D;63505;45.226;37.908;2022-10-18T04:04:31;6.84;77.70
74940;HTU21D;63505;45.226;37.908;2022-10-18T04:06:57;6.86;77.66
74940;HTU21D;63505;45.226;37.908;2022-10-18T04:09:23;6.87;77.66
74940;HTU21D;63505;45.226;37.908;2022-10-18T04:11:50;6.89;77.66
74940;HTU21D;63505;45.226;37.908;2022-10-18T04:14:16;6.95;77.66
74940;HTU21D;63505;45.226;37.908;2022-10-18T04:16:42;7.00;77.57
74940;HTU21D;63505;45.226;37.908;2022-10-18T04:19:08;7.05;77.47
74940;HTU21D;63505;45.226;37.908;2022-10-18T04:21:34;7.10;77.46
74940;HTU21D;63505;45.226;37.908;2022-10-18T04:24:00;7.16;77.45
74940;HTU21D;63505;45.226;37.908;2022-10-18T04:26:26;7.24;77.39
74940;HTU21D;63505;45.226;37.908;2022-10-18T04:28:51;7.33;77.32
74940;HTU21D;63505;45.226;37.908;2022-10-18T04:31:17;7.43;77.24
74940;HTU21D;63505;45.226;37.908;2022-10-18T04:33:43;7.54;77.17
74940;HTU21D;63505;45.226;37.908;2022-10-18T04:36:09;7.68;77.04
74940;HTU21D;63505;45.226;37.908;2022-10-18T04:38:35;7.83;76.88
74940;HTU21D;63505;45.226;37.908;2022-10-18T04:41:01;7.98;76.70
74940;HTU21D;63505;45.226;37.908;2022-10-18T04:43:27;8.14;76.54
74940;HTU21D;63505;45.226;37.908;2022-10-18T04:45:53;8.30;76.39
74940;HTU21D;63505;45.226;37.908;2022-10-18T04:48:19;8.47;76.20
74940;HTU21D;63505;45.226;37.908;2022-10-18T04:50:49;8.64;76.05
74940;HTU21D;63505;45.226;37.908;2022-10-18T04:53:16;8.81;75.89
74940;HTU21D;63505;45.226;37.908;2022-10-18T04:55:44;8.97;75.73
74940;HTU21D;63505;45.226;37.908;2022-10-18T04:58:10;9.14;75.63
74940;HTU21D;63505;45.226;37.908;2022-10-18T05:00:38;9.26;75.57
74940;HTU21D;63505;45.226;37.908;2022-10-18T05:03:04;9.40;75.52
74940;HTU21D;63505;45.226;37.908;2022-10-18T05:05:30;9.51;75.52
74940;HTU21D;63505;45.226;37.908;2022-10-18T05:07:55;9.60;75.63
74940;HTU21D;63505;45.226;37.908;2022-10-18T05:10:21;9.75;75.61
74940;HTU21D;63505;45.226;37.908;2022-10-18T05:12:47;9.91;75.49
74940;HTU21D;63505;45.226;37.908;2022-10-18T05:15:14;10.09;75.34
74940;HTU21D;63505;45.226;37.908;2022-10-18T05:17:40;10.27;75.15
74940;HTU21D;63505;45.226;37.908;2022-10-18T05:20:06;10.39;75.10
74940;HTU21D;63505;45.226;37.908;2022-10-18T05:22:32;10.52;75.06
74940;HTU21D;63505;45.226;37.908;2022-10-18T05:24:58;10.59;74.93
74940;HTU21D;63505;45.226;37.908;2022-10-18T05:27:23;10.68;74.97
74940;HTU21D;63505;45.226;37.908;2022-10-18T05:29:49;10.82;74.86
74940;HTU21D;63505;45.226;37.908;2022-10-18T05:32:15;10.94;74.82
74940;HTU21D;63505;45.226;37.908;2022-10-18T05:34:41;11.07;74.76
74940;HTU21D;63505;45.226;37.908;2022-10-18T05:37:07;11.19;74.64
74940;HTU21D;63505;45.226;37.908;2022-10-18T05:39:33;11.31;74.56
74940;HTU21D;63505;45.226;37.908;2022-10-18T05:41:59;11.47;74.48
74940;HTU21D;63505;45.226;37.908;2022-10-18T05:44:25;11.59;74.19
74940;HTU21D;63505;45.226;37.908;2022-10-18T05:46:51;11.71;74.15
74940;HTU21D;63505;45.226;37.908;2022-10-18T05:49:17;11.81;73.82
74940;HTU21D;63505;45.226;37.908;2022-10-18T05:51:43;11.88;73.80
74940;HTU21D;63505;45.226;37.908;2022-10-18T05:54:11;12.08;73.57
74940;HTU21D;63505;45.226;37.908;2022-10-18T05:56:37;12.19;73.28
74940;HTU21D;63505;45.226;37.908;2022-10-18T05:59:04;12.30;72.99
74940;HTU21D;63505;45.226;37.908;2022-10-18T06:01:35;12.34;72.90
74940;HTU21D;63505;45.226;37.908;2022-10-18T06:04:01;12.56;72.45
74940;HTU21D;63505;45.226;37.908;2022-10-18T06:06:27;12.57;72.03
74940;HTU21D;63505;45.226;37.908;2022-10-18T06:08:53;12.60;71.78
74940;HTU21D;63505;45.226;37.908;2022-10-18T06:11:20;12.70;71.38
74940;HTU21D;63505;45.226;37.908;2022-10-18T06:13:48;12.72;70.86
74940;HTU21D;63505;45.226;37.908;2022-10-18T06:16:16;12.74;70.74
74940;HTU21D;63505;45.226;37.908;2022-10-18T06:18:45;12.75;70.66
74940;HTU21D;63505;45.226;37.908;2022-10-18T06:21:12;12.80;70.45
74940;HTU21D;63505;45.226;37.908;2022-10-18T06:23:38;12.90;70.17
74940;HTU21D;63505;45.226;37.908;2022-10-18T06:26:06;13.00;70.17
74940;HTU21D;63505;45.226;37.908;2022-10-18T06:28:34;13.10;69.90
74940;HTU21D;63505;45.226;37.908;2022-10-18T06:31:00;13.31;69.74
74940;HTU21D;63505;45.226;37.908;2022-10-18T06:33:26;13.44;69.01
74940;HTU21D;63505;45.226;37.908;2022-10-18T06:36:06;13.46;69.13
74940;HTU21D;63505;45.226;37.908;2022-10-18T06:38:33;13.58;68.99
74940;HTU21D;63505;45.226;37.908;2022-10-18T06:41:00;13.74;68.84
74940;HTU21D;63505;45.226;37.908;2022-10-18T06:43:26;13.86;68.37
74940;HTU21D;63505;45.226;37.908;2022-10-18T06:45:52;13.83;68.23
74940;HTU21D;63505;45.226;37.908;2022-10-18T06:48:19;13.91;68.24
74940;HTU21D;63505;45.226;37.908;2022-10-18T06:50:56;13.96;68.14
74940;HTU21D;63505;45.226;37.908;2022-10-18T06:53:31;13.99;67.81
74940;HTU21D;63505;45.226;37.908;2022-10-18T06:56:07;14.08;67.92
74940;HTU21D;63505;45.226;37.908;2022-10-18T06:58:34;14.09;67.49
74940;HTU21D;63505;45.226;37.908;2022-10-18T07:01:11;14.19;67.53
74940;HTU21D;63505;45.226;37.908;2022-10-18T07:03:38;14.18;67.07
74940;HTU21D;63505;45.226;37.908;2022-10-18T07:06:06;14.12;67.36
74940;HTU21D;63505;45.226;37.908;2022-10-18T07:08:33;14.17;67.24
74940;HTU21D;63505;45.226;37.908;2022-10-18T07:10:59;14.19;67.39
74940;HTU21D;63505;45.226;37.908;2022-10-18T07:13:28;14.27;67.08
74940;HTU21D;63505;45.226;37.908;2022-10-18T07:16:00;14.24;67.05
74940;HTU21D;63505;45.226;37.908;2022-10-18T07:18:26;14.38;67.28
74940;HTU21D;63505;45.226;37.908;2022-10-18T07:20:52;14.67;67.04
74940;HTU21D;63505;45.226;37.908;2022-10-18T07:23:17;14.85;66.73
74940;HTU21D;63505;45.226;37.908;2022-10-18T07:25:45;15.02;66.42
74940;HTU21D;63505;45.226;37.908;2022-10-18T07:28:11;14.99;65.93
74940;HTU21D;63505;45.226;37.908;2022-10-18T07:30:37;15.10;66.30
74940;HTU21D;63505;45.226;37.908;2022-10-18T07:33:03;15.18;65.95
74940;HTU21D;63505;45.226;37.908;2022-10-18T07:35:29;15.25;65.98
74940;HTU21D;63505;45.226;37.908;2022-10-18T07:37:55;15.34;65.69
74940;HTU21D;63505;45.226;37.908;2022-10-18T07:40:21;15.37;65.63
74940;HTU21D;63505;45.226;37.908;2022-10-18T07:42:47;15.47;65.66
74940;HTU21D;63505;45.226;37.908;2022-10-18T07:45:13;15.57;65.40
74940;HTU21D;63505;45.226;37.908;2022-10-18T07:47:39;15.74;65.41
74940;HTU21D;63505;45.226;37.908;2022-10-18T07:50:05;15.95;64.86
74940;HTU21D;63505;45.226;37.908;2022-10-18T07:52:31;16.00;64.66
74940;HTU21D;63505;45.226;37.908;2022-10-18T07:54:57;16.03;64.34
74940;HTU21D;63505;45.226;37.908;2022-10-18T07:57:23;16.12;64.50
74940;HTU21D;63505;45.226;37.908;2022-10-18T07:59:49;16.22;64.11
74940;HTU21D;63505;45.226;37.908;2022-10-18T08:02:22;16.35;64.16
74940;HTU21D;63505;45.226;37.908;2022-10-18T08:04:48;16.54;63.85
74940;HTU21D;63505;45.226;37.908;2022-10-18T08:07:14;16.61;63.50
74940;HTU21D;63505;45.226;37.908;2022-10-18T08:09:39;16.73;62.81
74940;HTU21D;63505;45.226;37.908;2022-10-18T08:12:05;16.66;62.68
74940;HTU21D;63505;45.226;37.908;2022-10-18T08:14:31;16.58;62.82
74940;HTU21D;63505;45.226;37.908;2022-10-18T08:16:57;16.75;63.18
74940;HTU21D;63505;45.226;37.908;2022-10-18T08:19:23;17.06;62.45
74940;HTU21D;63505;45.226;37.908;2022-10-18T08:21:48;17.03;62.07
74940;HTU21D;63505;45.226;37.908;2022-10-18T08:24:14;17.08;62.11
74940;HTU21D;63505;45.226;37.908;2022-10-18T08:26:40;17.19;62.28
74940;HTU21D;63505;45.226;37.908;2022-10-18T08:29:06;17.36;61.96
74940;HTU21D;63505;45.226;37.908;2022-10-18T08:31:32;17.37;61.16
74940;HTU21D;63505;45.226;37.908;2022-10-18T08:33:58;17.43;61.48
74940;HTU21D;63505;45.226;37.908;2022-10-18T08:36:24;17.53;61.31
74940;HTU21D;63505;45.226;37.908;2022-10-18T08:38:50;17.73;61.25
74940;HTU21D;63505;45.226;37.908;2022-10-18T08:44:16;18.09;60.71
74940;HTU21D;63505;45.226;37.908;2022-10-18T08:46:54;18.19;60.36
74940;HTU21D;63505;45.226;37.908;2022-10-18T08:55:33;18.24;59.45
74940;HTU21D;63505;45.226;37.908;2022-10-18T08:58:23;18.21;59.54
74940;HTU21D;63505;45.226;37.908;2022-10-18T09:01:05;18.20;59.16
74940;HTU21D;63505;45.226;37.908;2022-10-18T09:09:43;18.13;59.18
74940;HTU21D;63505;45.226;37.908;2022-10-18T09:17:58;18.37;58.35
74940;HTU21D;63505;45.226;37.908;2022-10-18T09:20:57;18.27;58.06
74940;HTU21D;63505;45.226;37.908;2022-10-18T09:34:09;18.82;58.37
74940;HTU21D;63505;45.226;37.908;2022-10-18T09:36:36;18.86;58.02
74940;HTU21D;63505;45.226;37.908;2022-10-18T09:39:14;18.93;58.09
74940;HTU21D;63505;45.226;37.908;2022-10-18T09:41:52;18.98;57.93
74940;HTU21D;63505;45.226;37.908;2022-10-18T09:44:37;18.91;57.13
74940;HTU21D;63505;45.226;37.908;2022-10-18T09:47:12;18.86;57.78
74940;HTU21D;63505;45.226;37.908;2022-10-18T09:49:43;18.88;57.88
74940;HTU21D;63505;45.226;37.908;2022-10-18T09:52:19;18.94;57.60
74940;HTU21D;63505;45.226;37.908;2022-10-18T09:54:58;18.92;57.89
74940;HTU21D;63505;45.226;37.908;2022-10-18T09:57:40;19.09;58.03
74940;HTU21D;63505;45.226;37.908;2022-10-18T10:00:17;19.18;57.51
74940;HTU21D;63505;45.226;37.908;2022-10-18T10:02:45;19.13;57.05
74940;HTU21D;63505;45.226;37.908;2022-10-18T10:05:12;19.11;57.14
74940;HTU21D;63505;45.226;37.908;2022-10-18T10:07:46;19.21;57.38
74940;HTU21D;63505;45.226;37.908;2022-10-18T10:10:19;19.32;57.08
74940;HTU21D;63505;45.226;37.908;2022-10-18T10:12:46;19.40;57.19
74940;HTU21D;63505;45.226;37.908;2022-10-18T10:15:21;19.60;57.04
74940;HTU21D;63505;45.226;37.908;2022-10-18T10:18:02;19.71;56.75
74940;HTU21D;63505;45.226;37.908;2022-10-18T10:20:58;19.83;56.69
74940;HTU21D;63505;45.226;37.908;2022-10-18T10:23:43;19.92;56.51
74940;HTU21D;63505;45.226;37.908;2022-10-18T10:28:48;20.03;56.13
74940;HTU21D;63505;45.226;37.908;2022-10-18T10:34:03;20.07;55.75
74940;HTU21D;63505;45.226;37.908;2022-10-18T10:36:31;20.01;55.52
74940;HTU21D;63505;45.226;37.908;2022-10-18T10:39:14;20.00;55.48
74940;HTU21D;63505;45.226;37.908;2022-10-18T10:41:55;19.99;55.11
74940;HTU21D;63505;45.226;37.908;2022-10-18T10:44:31;19.91;55.07
74940;HTU21D;63505;45.226;37.908;2022-10-18T10:46:59;19.85;55.06
74940;HTU21D;63505;45.226;37.908;2022-10-18T10:49:30;19.86;55.12
74940;HTU21D;63505;45.226;37.908;2022-10-18T10:52:09;19.88;55.29
74940;HTU21D;63505;45.226;37.908;2022-10-18T10:54:43;19.95;54.97
74940;HTU21D;63505;45.226;37.908;2022-10-18T10:59:48;19.99;54.95
74940;HTU21D;63505;45.226;37.908;2022-10-18T11:04:44;19.92;54.43
74940;HTU21D;63505;45.226;37.908;2022-10-18T11:07:41;19.94;54.20
74940;HTU21D;63505;45.226;37.908;2022-10-18T11:12:44;19.99;54.28
74940;HTU21D;63505;45.226;37.908;2022-10-18T11:15:20;19.88;54.57
74940;HTU21D;63505;45.226;37.908;2022-10-18T11:23:06;19.76;54.55
74940;HTU21D;63505;45.226;37.908;2022-10-18T11:29:04;19.81;54.97
74940;HTU21D;63505;45.226;37.908;2022-10-18T11:37:31;19.76;54.63
74940;HTU21D;63505;45.226;37.908;2022-10-18T11:54:26;19.91;54.32
74940;HTU21D;63505;45.226;37.908;2022-10-18T11:59:49;19.88;54.10
74940;HTU21D;63505;45.226;37.908;2022-10-18T12:05:01;19.84;54.30
74940;HTU21D;63505;45.226;37.908;2022-10-18T12:07:33;19.82;54.21
74940;HTU21D;63505;45.226;37.908;2022-10-18T12:10:01;19.81;54.44
74940;HTU21D;63505;45.226;37.908;2022-10-18T12:12:52;19.83;54.60
74940;HTU21D;63505;45.226;37.908;2022-10-18T12:15:22;19.85;54.60
74940;HTU21D;63505;45.226;37.908;2022-10-18T12:17:54;19.89;54.72
74940;HTU21D;63505;45.226;37.908;2022-10-18T12:20:50;19.91;54.71
74940;HTU21D;63505;45.226;37.908;2022-10-18T12:23:35;19.87;54.52
74940;HTU21D;63505;45.226;37.908;2022-10-18T12:26:06;19.84;54.31
74940;HTU21D;63505;45.226;37.908;2022-10-18T12:31:25;19.96;54.47
74940;HTU21D;63505;45.226;37.908;2022-10-18T12:33:57;19.98;54.51
74940;HTU21D;63505;45.226;37.908;2022-10-18T12:39:24;20.07;54.44
74940;HTU21D;63505;45.226;37.908;2022-10-18T12:41:53;20.09;54.43
74940;HTU21D;63505;45.226;37.908;2022-10-18T12:44:30;20.10;54.43
74940;HTU21D;63505;45.226;37.908;2022-10-18T12:46:59;20.10;54.52
74940;HTU21D;63505;45.226;37.908;2022-10-18T12:49:29;20.07;54.29
74940;HTU21D;63505;45.226;37.908;2022-10-18T12:52:02;20.02;54.34
74940;HTU21D;63505;45.226;37.908;2022-10-18T12:54:34;19.92;54.23
74940;HTU21D;63505;45.226;37.908;2022-10-18T12:57:02;19.88;54.49
74940;HTU21D;63505;45.226;37.908;2022-10-18T13:09:38;19.81;54.88
74940;HTU21D;63505;45.226;37.908;2022-10-18T13:15:15;19.73;55.02
74940;HTU21D;63505;45.226;37.908;2022-10-18T13:18:17;19.70;55.15
74940;HTU21D;63505;45.226;37.908;2022-10-18T13:21:01;19.66;55.22
74940;HTU21D;63505;45.226;37.908;2022-10-18T13:23:59;19.61;55.47
74940;HTU21D;63505;45.226;37.908;2022-10-18T13:29:18;19.53;55.60
74940;HTU21D;63505;45.226;37.908;2022-10-18T13:36:59;19.35;56.03
74940;HTU21D;63505;45.226;37.908;2022-10-18T13:39:26;19.27;56.10
74940;HTU21D;63505;45.226;37.908;2022-10-18T13:44:27;19.13;56.41
74940;HTU21D;63505;45.226;37.908;2022-10-18T13:58:03;18.34;60.63
74940;HTU21D;63505;45.226;37.908;2022-10-18T14:06:15;17.83;62.69
74940;HTU21D;63505;45.226;37.908;2022-10-18T14:09:00;17.73;62.94
74940;HTU21D;63505;45.226;37.908;2022-10-18T14:11:35;17.60;63.31
74940;HTU21D;63505;45.226;37.908;2022-10-18T14:16:51;17.36;63.77
74940;HTU21D;63505;45.226;37.908;2022-10-18T14:24:32;17.03;64.44
74940;HTU21D;63505;45.226;37.908;2022-10-18T14:27:12;16.89;64.91
74940;HTU21D;63505;45.226;37.908;2022-10-18T14:29:40;16.77;65.31
74940;HTU21D;63505;45.226;37.908;2022-10-18T14:32:09;16.69;65.47
74940;HTU21D;63505;45.226;37.908;2022-10-18T14:34:36;16.60;65.57
74940;HTU21D;63505;45.226;37.908;2022-10-18T14:37:03;16.50;65.86
74940;HTU21D;63505;45.226;37.908;2022-10-18T14:39:29;16.39;66.28
74940;HTU21D;63505;45.226;37.908;2022-10-18T14:41:56;16.28;66.63
74940;HTU21D;63505;45.226;37.908;2022-10-18T14:44:27;16.17;66.98
74940;HTU21D;63505;45.226;37.908;2022-10-18T14:49:44;15.98;67.41
74940;HTU21D;63505;45.226;37.908;2022-10-18T14:52:19;15.88;67.62
74940;HTU21D;63505;45.226;37.908;2022-10-18T14:54:45;15.80;67.65
74940;HTU21D;63505;45.226;37.908;2022-10-18T14:57:37;15.73;67.74
74940;HTU21D;63505;45.226;37.908;2022-10-18T15:00:06;15.65;67.91
74940;HTU21D;63505;45.226;37.908;2022-10-18T15:02:35;15.54;68.17
74940;HTU21D;63505;45.226;37.908;2022-10-18T15:07:34;15.40;68.62
74940;HTU21D;63505;45.226;37.908;2022-10-18T15:10:02;15.30;68.94
74940;HTU21D;63505;45.226;37.908;2022-10-18T15:12:30;15.22;69.25
74940;HTU21D;63505;45.226;37.908;2022-10-18T15:14:57;15.15;69.48
74940;HTU21D;63505;45.226;37.908;2022-10-18T15:17:28;15.09;69.55
74940;HTU21D;63505;45.226;37.908;2022-10-18T15:19:59;15.01;69.78
74940;HTU21D;63505;45.226;37.908;2022-10-18T15:22:28;14.97;69.84
74940;HTU21D;63505;45.226;37.908;2022-10-18T15:27:53;14.83;70.14
74940;HTU21D;63505;45.226;37.908;2022-10-18T15:30:26;14.78;70.29
74940;HTU21D;63505;45.226;37.908;2022-10-18T15:33:00;14.72;70.43
74940;HTU21D;63505;45.226;37.908;2022-10-18T15:35:32;14.64;70.55
74940;HTU21D;63505;45.226;37.908;2022-10-18T15:38:12;14.58;70.80
74940;HTU21D;63505;45.226;37.908;2022-10-18T15:40:39;14.52;71.11
74940;HTU21D;63505;45.226;37.908;2022-10-18T15:45:57;14.38;71.58
74940;HTU21D;63505;45.226;37.908;2022-10-18T15:48:26;14.34;71.78
74940;HTU21D;63505;45.226;37.908;2022-10-18T15:50:54;14.29;72.02
74940;HTU21D;63505;45.226;37.908;2022-10-18T16:01:13;14.09;73.03
74940;HTU21D;63505;45.226;37.908;2022-10-18T16:03:39;13.99;73.41
74940;HTU21D;63505;45.226;37.908;2022-10-18T16:06:08;13.92;73.84
74940;HTU21D;63505;45.226;37.908;2022-10-18T16:08:45;13.86;74.02
74940;HTU21D;63505;45.226;37.908;2022-10-18T16:11:14;13.79;74.09
74940;HTU21D;63505;45.226;37.908;2022-10-18T16:13:41;13.70;74.33
74940;HTU21D;63505;45.226;37.908;2022-10-18T16:16:19;13.60;74.63
74940;HTU21D;63505;45.226;37.908;2022-10-18T16:18:46;13.49;74.82
74940;HTU21D;63505;45.226;37.908;2022-10-18T16:21:16;13.43;74.97
74940;HTU21D;63505;45.226;37.908;2022-10-18T16:23:43;13.34;75.27
74940;HTU21D;63505;45.226;37.908;2022-10-18T16:26:10;13.25;75.73
74940;HTU21D;63505;45.226;37.908;2022-10-18T16:28:38;13.20;76.09
74940;HTU21D;63505;45.226;37.908;2022-10-18T16:31:04;13.14;76.33
74940;HTU21D;63505;45.226;37.908;2022-10-18T16:33:30;13.07;76.47
74940;HTU21D;63505;45.226;37.908;2022-10-18T16:35:56;13.01;76.66
74940;HTU21D;63505;45.226;37.908;2022-10-18T16:38:28;12.97;76.85
74940;HTU21D;63505;45.226;37.908;2022-10-18T16:40:55;12.93;76.90
74940;HTU21D;63505;45.226;37.908;2022-10-18T16:43:22;12.92;77.08
74940;HTU21D;63505;45.226;37.908;2022-10-18T16:45:49;12.91;77.12
74940;HTU21D;63505;45.226;37.908;2022-10-18T16:48:19;12.92;77.39
74940;HTU21D;63505;45.226;37.908;2022-10-18T16:50:46;12.94;77.89
74940;HTU21D;63505;45.226;37.908;2022-10-18T16:53:13;13.05;77.95
74940;HTU21D;63505;45.226;37.908;2022-10-18T16:55:40;13.12;77.92
74940;HTU21D;63505;45.226;37.908;2022-10-18T16:58:10;13.05;77.92
74940;HTU21D;63505;45.226;37.908;2022-10-18T17:00:39;12.96;78.01
74940;HTU21D;63505;45.226;37.908;2022-10-18T17:03:06;12.88;78.08
74940;HTU21D;63505;45.226;37.908;2022-10-18T17:05:33;12.82;78.10
74940;HTU21D;63505;45.226;37.908;2022-10-18T17:07:59;12.78;78.05
74940;HTU21D;63505;45.226;37.908;2022-10-18T17:10:25;12.73;78.05
74940;HTU21D;63505;45.226;37.908;2022-10-18T17:12:52;12.70;78.05
74940;HTU21D;63505;45.226;37.908;2022-10-18T17:15:18;12.67;78.08
74940;HTU21D;63505;45.226;37.908;2022-10-18T17:17:45;12.65;78.18
74940;HTU21D;63505;45.226;37.908;2022-10-18T17:20:21;12.62;78.36
74940;HTU21D;63505;45.226;37.908;2022-10-18T17:22:48;12.58;78.47
74940;HTU21D;63505;45.226;37.908;2022-10-18T17:25:16;12.53;78.89
74940;HTU21D;63505;45.226;37.908;2022-10-18T17:27:42;12.50;79.21
74940;HTU21D;63505;45.226;37.908;2022-10-18T17:30:09;12.47;79.48
74940;HTU21D;63505;45.226;37.908;2022-10-18T17:32:36;12.43;79.71
74940;HTU21D;63505;45.226;37.908;2022-10-18T17:35:02;12.40;79.82
74940;HTU21D;63505;45.226;37.908;2022-10-18T17:37:28;12.35;79.99
74940;HTU21D;63505;45.226;37.908;2022-10-18T17:39:54;12.30;80.14
74940;HTU21D;63505;45.226;37.908;2022-10-18T17:42:20;12.28;80.14
74940;HTU21D;63505;45.226;37.908;2022-10-18T17:44:47;12.23;80.29
74940;HTU21D;63505;45.226;37.908;2022-10-18T17:47:13;12.20;80.47
74940;HTU21D;63505;45.226;37.908;2022-10-18T17:49:39;12.19;80.49
74940;HTU21D;63505;45.226;37.908;2022-10-18T17:52:05;12.18;80.39
74940;HTU21D;63505;45.226;37.908;2022-10-18T17:54:31;12.15;80.31
74940;HTU21D;63505;45.226;37.908;2022-10-18T17:56:57;12.15;80.33
74940;HTU21D;63505;45.226;37.908;2022-10-18T17:59:23;12.13;80.43
74940;HTU21D;63505;45.226;37.908;2022-10-18T18:01:49;12.14;80.43
74940;HTU21D;63505;45.226;37.908;2022-10-18T18:04:15;12.11;80.51
74940;HTU21D;63505;45.226;37.908;2022-10-18T18:06:42;12.11;80.68
74940;HTU21D;63505;45.226;37.908;2022-10-18T18:09:12;12.08;80.98
74940;HTU21D;63505;45.226;37.908;2022-10-18T18:11:40;12.06;81.16
74940;HTU21D;63505;45.226;37.908;2022-10-18T18:14:09;12.03;81.33
74940;HTU21D;63505;45.226;37.908;2022-10-18T18:16:36;12.01;81.60